createdAt,value
2022-08-24T00:01:28.091Z,9.60
2022-08-24T00:06:32.145Z,11.52
2022-08-24T00:11:35.017Z,10.10
2022-08-24T00:16:37.869Z,9.77
2022-08-24T00:21:41.916Z,8.07
2022-08-24T00:26:45.948Z,10.82
2022-08-24T00:31:48.831Z,10.35
2022-08-24T00:36:53.470Z,10.43
2022-08-24T00:41:58.612Z,11.15
2022-08-24T00:47:06.739Z,8.43
2022-08-24T00:52:17.598Z,10.98
2022-08-24T00:57:30.223Z,9.00
2022-08-24T01:02:39.250Z,10.40
2022-08-24T01:07:59.990Z,10.07
2022-08-24T01:13:06.077Z,10.13
2022-08-24T01:24:42.804Z,13.30
2022-08-24T01:29:50.437Z,11.38
2022-08-24T01:34:55.554Z,9.07
2022-08-24T01:40:04.865Z,8.57
2022-08-24T01:45:11.972Z,12.90
2022-08-24T01:50:18.184Z,12.48
2022-08-24T01:55:22.941Z,12.50
2022-08-24T02:00:28.030Z,11.85
2022-08-24T02:05:31.112Z,11.88
2022-08-24T02:10:37.794Z,9.95
2022-08-24T02:15:41.498Z,11.30
2022-08-24T02:20:48.083Z,13.23
2022-08-24T02:25:54.801Z,14.63
2022-08-24T02:30:57.922Z,9.93
2022-08-24T02:36:04.052Z,13.38
2022-08-24T02:41:26.955Z,10.30
2022-08-24T02:46:31.962Z,11.63
2022-08-24T02:51:40.530Z,15.65
2022-08-24T02:56:49.038Z,14.68
2022-08-24T03:01:53.001Z,11.93
2022-08-24T03:06:55.934Z,12.75
2022-08-24T03:12:00.134Z,13.23
2022-08-24T03:17:03.291Z,10.93
2022-08-24T03:22:06.578Z,14.35
2022-08-24T03:27:11.398Z,11.02
2022-08-24T03:32:14.279Z,12.38
2022-08-24T03:37:17.339Z,13.63
2022-08-24T03:42:37.554Z,12.48
2022-08-24T03:47:40.574Z,12.88
2022-08-24T03:52:46.850Z,10.90
2022-08-24T03:57:53.414Z,11.05
2022-08-24T04:02:56.665Z,16.35
2022-08-24T04:07:59.599Z,12.98
2022-08-24T04:13:04.063Z,14.48
2022-08-24T04:18:09.953Z,12.40
2022-08-24T04:23:13.483Z,18.55
2022-08-24T04:28:19.993Z,15.00
2022-08-24T04:33:24.960Z,20.73
2022-08-24T04:38:31.053Z,16.13
2022-08-24T04:43:35.502Z,12.38
2022-08-24T04:48:39.082Z,12.88
2022-08-24T04:53:42.410Z,11.05
2022-08-24T04:58:47.350Z,13.85
2022-08-24T05:03:52.385Z,16.02
2022-08-24T05:09:00.484Z,15.05
2022-08-24T05:14:05.909Z,10.05
2022-08-24T05:19:12.809Z,12.30
2022-08-24T05:24:15.815Z,12.57
2022-08-24T05:29:23.267Z,15.13
2022-08-24T05:34:26.581Z,10.48
2022-08-24T05:39:31.063Z,13.05
2022-08-24T05:44:35.226Z,12.98
2022-08-24T05:49:41.331Z,11.75
2022-08-24T05:54:44.474Z,18.20
2022-08-24T05:59:48.784Z,10.25
2022-08-24T06:04:51.709Z,11.68
2022-08-24T06:09:54.643Z,12.15
2022-08-24T06:14:58.895Z,13.27
2022-08-24T06:20:01.735Z,18.20
2022-08-24T06:25:22.990Z,14.40
2022-08-24T06:30:30.727Z,15.68
2022-08-24T06:35:33.598Z,12.88
2022-08-24T06:40:36.531Z,14.80
2022-08-24T06:45:43.749Z,16.65
2022-08-24T06:50:48.113Z,14.38
2022-08-24T06:55:52.045Z,13.90
2022-08-24T07:00:57.102Z,13.82
2022-08-24T07:05:59.858Z,13.07
2022-08-24T07:11:03.381Z,12.10
2022-08-24T07:16:09.871Z,13.27
2022-08-24T07:21:12.710Z,14.30
2022-08-24T07:26:21.806Z,16.33
2022-08-24T07:31:26.680Z,10.60
2022-08-24T07:36:29.514Z,13.10
2022-08-24T07:46:57.031Z,12.25
2022-08-24T07:51:59.834Z,13.93
2022-08-24T07:57:06.500Z,13.23
2022-08-24T08:02:11.187Z,13.75
2022-08-24T08:07:14.955Z,12.32
2022-08-24T08:12:17.931Z,9.57
2022-08-24T08:17:21.960Z,15.50
2022-08-24T08:22:42.348Z,10.10
2022-08-24T08:27:45.059Z,10.73
2022-08-24T08:32:49.114Z,12.23
2022-08-24T08:37:52.018Z,14.88
2022-08-24T08:43:02.126Z,17.30
2022-08-24T08:48:33.117Z,15.88
2022-08-24T08:54:09.710Z,9.25
2022-08-24T08:59:26.057Z,10.15
2022-08-24T09:04:50.111Z,9.77
2022-08-24T09:10:13.984Z,10.25
2022-08-24T09:15:40.475Z,10.45
2022-08-24T09:21:09.168Z,11.50
2022-08-24T09:26:24.568Z,7.85
2022-08-24T09:31:46.161Z,7.20
2022-08-24T09:36:58.244Z,10.68
2022-08-24T09:42:28.071Z,10.82
2022-08-24T09:47:53.691Z,8.43
2022-08-24T09:53:32.886Z,10.25
2022-08-24T09:58:50.900Z,11.32
2022-08-24T10:04:05.450Z,6.75
2022-08-24T10:09:25.651Z,6.57
2022-08-24T10:14:45.071Z,8.02
2022-08-24T10:19:58.051Z,8.20
2022-08-24T10:25:12.905Z,10.18
2022-08-24T10:30:34.900Z,8.50
2022-08-24T10:36:03.461Z,8.77
2022-08-24T10:41:41.276Z,14.77
2022-08-24T10:46:50.437Z,12.15
2022-08-24T10:52:36.596Z,17.45
2022-08-24T10:57:52.251Z,12.90
2022-08-24T11:03:09.148Z,12.10
2022-08-24T11:08:20.791Z,13.25
2022-08-24T11:13:27.728Z,10.95
2022-08-24T11:18:49.455Z,8.30
2022-08-24T11:23:52.744Z,10.15
2022-08-24T11:29:05.180Z,12.82
2022-08-24T11:34:10.667Z,11.88
2022-08-24T11:39:22.226Z,14.88
2022-08-24T11:44:39.691Z,9.27
2022-08-24T11:49:53.263Z,9.65
2022-08-24T11:55:05.245Z,11.07
2022-08-24T12:00:14.859Z,11.20
2022-08-24T12:05:25.879Z,11.85
2022-08-24T12:10:38.811Z,11.88
2022-08-24T12:15:52.093Z,11.90
2022-08-24T12:20:55.784Z,10.65
2022-08-24T12:26:02.901Z,13.60
2022-08-24T12:31:14.120Z,11.57
2022-08-24T12:36:25.994Z,10.82
2022-08-24T12:41:35.027Z,11.57
2022-08-24T12:46:40.339Z,11.35
2022-08-24T12:52:05.104Z,11.65
2022-08-24T12:57:19.700Z,9.77
2022-08-24T13:02:37.625Z,11.73
2022-08-24T13:07:50.091Z,11.25
2022-08-24T13:13:08.464Z,11.43
2022-08-24T13:18:50.792Z,10.00
2022-08-24T13:24:50.275Z,10.93
2022-08-24T13:30:06.204Z,13.43
2022-08-24T13:35:33.833Z,12.57
2022-08-24T13:40:48.347Z,11.77
2022-08-24T13:45:58.290Z,17.10
2022-08-24T13:51:20.542Z,9.00
2022-08-24T13:56:38.471Z,10.93
2022-08-24T14:02:06.514Z,12.63
2022-08-24T14:07:15.861Z,10.82
2022-08-24T14:12:27.015Z,12.63
2022-08-24T14:17:55.520Z,9.07
2022-08-24T14:23:06.889Z,10.68
2022-08-24T14:28:37.163Z,17.67
2022-08-24T14:33:50.495Z,11.45
2022-08-24T14:39:06.525Z,12.40
2022-08-24T14:44:25.275Z,16.05
2022-08-24T14:49:36.405Z,10.95
2022-08-24T14:54:57.595Z,13.65
2022-08-24T15:00:10.263Z,15.77
2022-08-24T15:05:23.145Z,14.25
2022-08-24T15:10:29.366Z,15.43
2022-08-24T15:15:36.264Z,19.83
2022-08-24T15:20:49.655Z,14.93
2022-08-24T15:25:59.336Z,15.00
2022-08-24T15:31:07.487Z,14.93
2022-08-24T15:36:14.369Z,16.20
2022-08-24T15:41:19.679Z,15.05
2022-08-24T15:46:27.233Z,12.73
2022-08-24T15:51:46.867Z,12.13
2022-08-24T15:56:51.940Z,17.45
2022-08-24T16:02:30.430Z,7.28
2022-08-24T16:08:13.625Z,13.95
2022-08-24T16:13:25.752Z,11.73
2022-08-24T16:18:45.041Z,12.13
2022-08-24T16:23:56.201Z,11.05
2022-08-24T16:28:59.276Z,12.35
2022-08-24T16:34:15.606Z,13.68
2022-08-24T16:39:19.647Z,12.95
2022-08-24T16:44:25.979Z,13.63
2022-08-24T16:49:29.115Z,13.57
2022-08-24T16:54:34.060Z,13.30
2022-08-24T16:59:37.936Z,15.85
2022-08-24T17:04:42.612Z,17.05
2022-08-24T17:09:48.263Z,12.25
2022-08-24T17:14:51.500Z,10.75
2022-08-24T17:19:55.997Z,9.45
2022-08-24T17:25:00.208Z,12.48
2022-08-24T17:30:04.730Z,11.40
2022-08-24T17:35:07.935Z,13.77
2022-08-24T17:40:16.316Z,9.35
2022-08-24T17:45:19.274Z,14.38
2022-08-24T17:50:24.118Z,11.95
2022-08-24T17:55:29.200Z,11.57
2022-08-24T18:00:32.876Z,11.88
2022-08-24T18:05:35.862Z,15.80
2022-08-24T18:10:40.021Z,17.65
2022-08-24T18:15:43.141Z,12.27
2022-08-24T18:20:45.945Z,14.63
2022-08-24T18:25:52.720Z,13.63
2022-08-24T18:30:55.551Z,13.50
2022-08-24T18:36:00.120Z,14.48
2022-08-24T18:41:04.245Z,14.50
2022-08-24T18:46:07.323Z,20.95
2022-08-24T18:51:12.425Z,15.15
2022-08-24T18:56:16.521Z,17.13
2022-08-24T19:01:19.312Z,13.77
2022-08-24T19:06:22.507Z,16.20
2022-08-24T19:11:26.664Z,19.02
2022-08-24T19:16:29.447Z,14.63
2022-08-24T19:21:35.585Z,17.80
2022-08-24T19:26:39.645Z,18.67
2022-08-24T19:31:42.814Z,17.58
2022-08-24T19:36:45.902Z,15.23
2022-08-24T19:41:50.739Z,23.05
2022-08-24T19:46:59.311Z,18.17
2022-08-24T19:52:02.966Z,17.42
2022-08-24T19:57:37.343Z,23.52
2022-08-24T20:02:40.325Z,18.55
2022-08-24T20:07:43.429Z,16.27
2022-08-24T20:12:47.803Z,19.42
2022-08-24T20:17:51.172Z,17.95
2022-08-24T20:22:54.021Z,17.77
2022-08-24T20:28:25.356Z,22.05
2022-08-24T20:33:24.822Z,19.90
2022-08-24T20:38:32.096Z,20.25
2022-08-24T20:43:36.457Z,21.75
2022-08-24T20:48:42.935Z,24.45
2022-08-24T20:53:46.537Z,19.98
2022-08-24T20:58:51.044Z,17.88
2022-08-24T21:03:53.757Z,22.42
2022-08-24T21:08:56.620Z,19.52
2022-08-24T21:14:00.697Z,21.08
2022-08-24T21:19:03.468Z,25.20
2022-08-24T21:24:09.575Z,18.98
2022-08-24T21:29:13.666Z,23.67
2022-08-24T21:34:34.005Z,16.15
2022-08-24T21:39:37.020Z,17.55
2022-08-24T21:44:42.390Z,22.67
2022-08-24T21:49:45.125Z,18.60
2022-08-24T21:54:48.069Z,22.15
2022-08-24T21:59:52.132Z,21.05
2022-08-24T22:04:56.682Z,19.90
2022-08-24T22:09:59.935Z,19.77
2022-08-24T22:15:05.413Z,18.85
2022-08-24T22:20:10.468Z,21.83
2022-08-24T22:25:25.919Z,23.30
2022-08-24T22:30:32.609Z,26.77
2022-08-24T22:35:44.720Z,25.33
2022-08-24T22:40:53.706Z,25.20
2022-08-24T22:45:57.786Z,20.30
2022-08-24T22:51:01.429Z,19.63
2022-08-24T22:56:05.313Z,19.80
2022-08-24T23:01:09.644Z,22.48
2022-08-24T23:06:12.383Z,19.33
2022-08-24T23:11:15.826Z,23.45
2022-08-24T23:16:19.958Z,16.70
2022-08-24T23:21:22.899Z,25.17
2022-08-24T23:26:26.253Z,23.55
2022-08-24T23:31:31.259Z,24.50
2022-08-24T23:36:34.075Z,24.98
2022-08-24T23:41:39.135Z,20.02
2022-08-24T23:46:46.599Z,21.05
2022-08-24T23:51:50.114Z,23.67
2022-08-24T23:56:55.806Z,21.00
